Terminal Aerodrome Forecast
Issued by NWS

Home | Current Version | Previous Version | Text Only | Print | Product List | Glossary On
Versions: 1 2 3 4 5 6 7 8 9 10 11 12
000
FTUS43 KGRB 021734
TAFATW
TAF
KATW 021734Z 0218/0318 10006KT P6SM SKC
     FM022200 12006KT P6SM SKC
     FM030200 VRB03KT P6SM SCT250
     FM031500 23007KT P6SM BKN250=

USA.gov is the U.S. government's official web portal to all federal, state and local government web resources and services.